sensor_id;sensor_type;location;lat;lon;timestamp;P1;durP1;ratioP1;P2;durP2;ratioP2
46705;SDS011;33519;50.712;7.124;2022-11-23T18:19:58;3.25;;;1.08;;
46705;SDS011;33519;50.712;7.124;2022-11-23T18:22:26;4.45;;;1.35;;
46705;SDS011;33519;50.712;7.124;2022-11-23T18:24:53;7.20;;;1.70;;
46705;SDS011;33519;50.712;7.124;2022-11-23T18:27:20;5.22;;;1.33;;
46705;SDS011;33519;50.712;7.124;2022-11-23T18:29:52;3.20;;;1.13;;
46705;SDS011;33519;50.712;7.124;2022-11-23T18:32:21;1.98;;;1.05;;
46705;SDS011;33519;50.712;7.124;2022-11-23T18:34:53;3.17;;;0.88;;
46705;SDS011;33519;50.712;7.124;2022-11-23T18:37:20;5.20;;;1.40;;
46705;SDS011;33519;50.712;7.124;2022-11-23T18:39:47;4.68;;;1.42;;
46705;SDS011;33519;50.712;7.124;2022-11-23T18:42:14;7.40;;;1.45;;
46705;SDS011;33519;50.712;7.124;2022-11-23T18:44:40;8.75;;;1.48;;
46705;SDS011;33519;50.712;7.124;2022-11-23T18:47:07;3.47;;;2.03;;
46705;SDS011;33519;50.712;7.124;2022-11-23T18:49:34;8.38;;;1.63;;
46705;SDS011;33519;50.712;7.124;2022-11-23T18:52:01;2.75;;;1.35;;
46705;SDS011;33519;50.712;7.124;2022-11-23T18:54:27;4.95;;;0.98;;
46705;SDS011;33519;50.712;7.124;2022-11-23T18:56:54;5.93;;;1.52;;
46705;SDS011;33519;50.712;7.124;2022-11-23T18:59:21;5.75;;;1.38;;
46705;SDS011;33519;50.712;7.124;2022-11-23T19:02:08;5.43;;;2.47;;
46705;SDS011;33519;50.712;7.124;2022-11-23T19:04:35;3.28;;;1.27;;
46705;SDS011;33519;50.712;7.124;2022-11-23T19:07:08;4.70;;;1.25;;
46705;SDS011;33519;50.712;7.124;2022-11-23T19:09:34;5.07;;;1.85;;
46705;SDS011;33519;50.712;7.124;2022-11-23T19:12:01;3.33;;;1.17;;
46705;SDS011;33519;50.712;7.124;2022-11-23T19:14:28;6.88;;;1.45;;
46705;SDS011;33519;50.712;7.124;2022-11-23T19:16:54;6.57;;;1.70;;
46705;SDS011;33519;50.712;7.124;2022-11-23T19:19:21;4.30;;;1.52;;
46705;SDS011;33519;50.712;7.124;2022-11-23T19:21:48;10.77;;;2.33;;
46705;SDS011;33519;50.712;7.124;2022-11-23T19:24:14;7.80;;;1.65;;
46705;SDS011;33519;50.712;7.124;2022-11-23T19:26:41;4.25;;;1.17;;
46705;SDS011;33519;50.712;7.124;2022-11-23T19:29:08;4.10;;;1.08;;
46705;SDS011;33519;50.712;7.124;2022-11-23T19:31:35;6.40;;;1.42;;
46705;SDS011;33519;50.712;7.124;2022-11-23T19:34:02;6.85;;;1.67;;
46705;SDS011;33519;50.712;7.124;2022-11-23T19:36:35;4.70;;;1.38;;
46705;SDS011;33519;50.712;7.124;2022-11-23T19:39:03;5.88;;;1.95;;
46705;SDS011;33519;50.712;7.124;2022-11-23T19:41:30;4.88;;;1.55;;
46705;SDS011;33519;50.712;7.124;2022-11-23T19:43:57;4.05;;;1.65;;
46705;SDS011;33519;50.712;7.124;2022-11-23T19:46:25;5.38;;;1.58;;
46705;SDS011;33519;50.712;7.124;2022-11-23T19:48:53;5.03;;;1.20;;
46705;SDS011;33519;50.712;7.124;2022-11-23T19:51:23;3.95;;;1.33;;
46705;SDS011;33519;50.712;7.124;2022-11-23T19:53:50;4.65;;;1.75;;
46705;SDS011;33519;50.712;7.124;2022-11-23T19:56:18;5.78;;;2.53;;
46705;SDS011;33519;50.712;7.124;2022-11-23T19:58:49;10.73;;;3.47;;
46705;SDS011;33519;50.712;7.124;2022-11-23T20:01:20;10.35;;;2.95;;
46705;SDS011;33519;50.712;7.124;2022-11-23T20:03:49;8.82;;;3.28;;
46705;SDS011;33519;50.712;7.124;2022-11-23T20:06:18;6.43;;;2.30;;
46705;SDS011;33519;50.712;7.124;2022-11-23T20:09:04;6.40;;;2.97;;
46705;SDS011;33519;50.712;7.124;2022-11-23T20:11:33;4.90;;;2.05;;
46705;SDS011;33519;50.712;7.124;2022-11-23T20:14:01;6.68;;;1.98;;
46705;SDS011;33519;50.712;7.124;2022-11-23T20:16:29;5.13;;;1.77;;
46705;SDS011;33519;50.712;7.124;2022-11-23T20:19:01;8.30;;;2.03;;
46705;SDS011;33519;50.712;7.124;2022-11-23T20:21:30;10.82;;;2.72;;
46705;SDS011;33519;50.712;7.124;2022-11-23T20:23:58;11.52;;;3.03;;
46705;SDS011;33519;50.712;7.124;2022-11-23T20:26:31;7.97;;;2.53;;
46705;SDS011;33519;50.712;7.124;2022-11-23T20:28:58;18.02;;;3.28;;
46705;SDS011;33519;50.712;7.124;2022-11-23T20:31:26;9.55;;;2.85;;
46705;SDS011;33519;50.712;7.124;2022-11-23T20:33:54;5.85;;;2.10;;
46705;SDS011;33519;50.712;7.124;2022-11-23T20:36:30;8.95;;;2.75;;
46705;SDS011;33519;50.712;7.124;2022-11-23T20:39:05;14.18;;;4.90;;
46705;SDS011;33519;50.712;7.124;2022-11-23T20:41:34;9.32;;;3.72;;
46705;SDS011;33519;50.712;7.124;2022-11-23T20:44:09;8.20;;;3.25;;
46705;SDS011;33519;50.712;7.124;2022-11-23T20:46:37;9.10;;;3.60;;
46705;SDS011;33519;50.712;7.124;2022-11-23T20:49:24;9.15;;;3.58;;
46705;SDS011;33519;50.712;7.124;2022-11-23T20:51:52;14.45;;;5.45;;
46705;SDS011;33519;50.712;7.124;2022-11-23T20:54:19;13.10;;;6.30;;
46705;SDS011;33519;50.712;7.124;2022-11-23T20:56:45;11.00;;;4.20;;
46705;SDS011;33519;50.712;7.124;2022-11-23T20:59:12;11.65;;;4.95;;
46705;SDS011;33519;50.712;7.124;2022-11-23T21:01:39;12.15;;;4.85;;
46705;SDS011;33519;50.712;7.124;2022-11-23T21:04:06;10.40;;;4.53;;
46705;SDS011;33519;50.712;7.124;2022-11-23T21:06:33;13.68;;;4.85;;
46705;SDS011;33519;50.712;7.124;2022-11-23T21:09:04;12.38;;;5.78;;
46705;SDS011;33519;50.712;7.124;2022-11-23T21:11:31;13.70;;;5.07;;
46705;SDS011;33519;50.712;7.124;2022-11-23T21:14:18;10.73;;;5.75;;
46705;SDS011;33519;50.712;7.124;2022-11-23T21:16:50;10.88;;;5.97;;
46705;SDS011;33519;50.712;7.124;2022-11-23T21:19:19;13.32;;;5.53;;
46705;SDS011;33519;50.712;7.124;2022-11-23T21:21:47;13.23;;;5.50;;
46705;SDS011;33519;50.712;7.124;2022-11-23T21:24:14;13.23;;;5.00;;
46705;SDS011;33519;50.712;7.124;2022-11-23T21:26:41;13.57;;;4.90;;
46705;SDS011;33519;50.712;7.124;2022-11-23T21:29:08;15.00;;;6.07;;
46705;SDS011;33519;50.712;7.124;2022-11-23T21:31:36;13.20;;;5.30;;
46705;SDS011;33519;50.712;7.124;2022-11-23T21:34:04;14.82;;;5.43;;
46705;SDS011;33519;50.712;7.124;2022-11-23T21:36:32;15.65;;;5.43;;
46705;SDS011;33519;50.712;7.124;2022-11-23T21:39:01;13.02;;;5.32;;
46705;SDS011;33519;50.712;7.124;2022-11-23T21:41:31;17.83;;;5.45;;
46705;SDS011;33519;50.712;7.124;2022-11-23T21:43:58;16.63;;;5.40;;
46705;SDS011;33519;50.712;7.124;2022-11-23T21:46:25;15.40;;;5.75;;
46705;SDS011;33519;50.712;7.124;2022-11-23T21:48:53;16.48;;;7.40;;
46705;SDS011;33519;50.712;7.124;2022-11-23T21:51:22;15.88;;;4.47;;
46705;SDS011;33519;50.712;7.124;2022-11-23T21:53:52;26.77;;;6.40;;
46705;SDS011;33519;50.712;7.124;2022-11-23T21:56:22;12.05;;;4.25;;
46705;SDS011;33519;50.712;7.124;2022-11-23T21:58:49;16.67;;;4.35;;
46705;SDS011;33519;50.712;7.124;2022-11-23T22:01:18;23.33;;;3.97;;
46705;SDS011;33519;50.712;7.124;2022-11-23T22:03:47;11.50;;;2.90;;
46705;SDS011;33519;50.712;7.124;2022-11-23T22:06:20;21.42;;;3.83;;
46705;SDS011;33519;50.712;7.124;2022-11-23T22:08:49;11.98;;;3.60;;
46705;SDS011;33519;50.712;7.124;2022-11-23T22:11:21;14.35;;;3.28;;
46705;SDS011;33519;50.712;7.124;2022-11-23T22:13:55;10.75;;;3.95;;
46705;SDS011;33519;50.712;7.124;2022-11-23T22:16:25;20.13;;;3.22;;
46705;SDS011;33519;50.712;7.124;2022-11-23T22:18:56;17.27;;;4.80;;
46705;SDS011;33519;50.712;7.124;2022-11-23T22:21:24;12.60;;;3.60;;
46705;SDS011;33519;50.712;7.124;2022-11-23T22:23:53;13.82;;;3.58;;
46705;SDS011;33519;50.712;7.124;2022-11-23T22:26:20;17.70;;;4.50;;
46705;SDS011;33519;50.712;7.124;2022-11-23T22:28:48;18.38;;;3.65;;
46705;SDS011;33519;50.712;7.124;2022-11-23T22:31:17;14.68;;;4.47;;
46705;SDS011;33519;50.712;7.124;2022-11-23T22:33:45;13.73;;;2.88;;
46705;SDS011;33519;50.712;7.124;2022-11-23T22:36:16;10.05;;;2.17;;
46705;SDS011;33519;50.712;7.124;2022-11-23T22:38:44;8.45;;;2.00;;
46705;SDS011;33519;50.712;7.124;2022-11-23T22:41:15;15.10;;;3.20;;
46705;SDS011;33519;50.712;7.124;2022-11-23T22:43:42;14.50;;;2.85;;
46705;SDS011;33519;50.712;7.124;2022-11-23T22:46:10;12.35;;;2.08;;
46705;SDS011;33519;50.712;7.124;2022-11-23T22:48:42;16.52;;;2.53;;
46705;SDS011;33519;50.712;7.124;2022-11-23T22:51:10;10.80;;;3.13;;
46705;SDS011;33519;50.712;7.124;2022-11-23T22:53:38;14.48;;;3.05;;
46705;SDS011;33519;50.712;7.124;2022-11-23T22:56:14;9.57;;;3.53;;
46705;SDS011;33519;50.712;7.124;2022-11-23T22:58:43;17.83;;;4.40;;
46705;SDS011;33519;50.712;7.124;2022-11-23T23:01:15;4.90;;;1.92;;
46705;SDS011;33519;50.712;7.124;2022-11-23T23:03:53;12.93;;;3.05;;
46705;SDS011;33519;50.712;7.124;2022-11-23T23:06:25;10.75;;;2.05;;
46705;SDS011;33519;50.712;7.124;2022-11-23T23:08:54;13.32;;;2.67;;
46705;SDS011;33519;50.712;7.124;2022-11-23T23:11:22;9.45;;;2.70;;
46705;SDS011;33519;50.712;7.124;2022-11-23T23:13:50;11.60;;;2.22;;
46705;SDS011;33519;50.712;7.124;2022-11-23T23:16:17;14.75;;;3.08;;
46705;SDS011;33519;50.712;7.124;2022-11-23T23:18:44;18.50;;;4.55;;
46705;SDS011;33519;50.712;7.124;2022-11-23T23:21:12;17.10;;;2.65;;
46705;SDS011;33519;50.712;7.124;2022-11-23T23:23:41;12.50;;;2.20;;
46705;SDS011;33519;50.712;7.124;2022-11-23T23:26:10;16.67;;;3.05;;
46705;SDS011;33519;50.712;7.124;2022-11-23T23:28:37;12.95;;;3.10;;
46705;SDS011;33519;50.712;7.124;2022-11-23T23:31:06;12.88;;;2.95;;
46705;SDS011;33519;50.712;7.124;2022-11-23T23:33:37;16.42;;;4.32;;
46705;SDS011;33519;50.712;7.124;2022-11-23T23:38:40;7.60;;;2.53;;
46705;SDS011;33519;50.712;7.124;2022-11-23T23:41:07;13.73;;;2.85;;
46705;SDS011;33519;50.712;7.124;2022-11-23T23:43:35;17.13;;;3.45;;
46705;SDS011;33519;50.712;7.124;2022-11-23T23:46:03;11.18;;;2.47;;
46705;SDS011;33519;50.712;7.124;2022-11-23T23:48:34;12.30;;;2.38;;
46705;SDS011;33519;50.712;7.124;2022-11-23T23:53:31;12.77;;;1.90;;
46705;SDS011;33519;50.712;7.124;2022-11-23T23:55:59;16.85;;;3.35;;
46705;SDS011;33519;50.712;7.124;2022-11-23T23:58:28;12.20;;;2.95;;
